sensor_id;sensor_type;location;lat;lon;timestamp;temperature;humidity
62991;DHT22;49084;48.204;16.202;2022-12-07T00:01:11;4.70;99.90
62991;DHT22;49084;48.204;16.202;2022-12-07T00:03:38;4.80;99.90
62991;DHT22;49084;48.204;16.202;2022-12-07T00:06:04;4.70;99.90
62991;DHT22;49084;48.204;16.202;2022-12-07T00:08:32;4.80;99.90
62991;DHT22;49084;48.204;16.202;2022-12-07T00:11:09;4.80;99.90
62991;DHT22;49084;48.204;16.202;2022-12-07T00:13:35;4.80;99.90
62991;DHT22;49084;48.204;16.202;2022-12-07T00:18:29;4.90;99.90
62991;DHT22;49084;48.204;16.202;2022-12-07T00:21:00;4.90;99.90
62991;DHT22;49084;48.204;16.202;2022-12-07T00:23:26;4.90;99.90
62991;DHT22;49084;48.204;16.202;2022-12-07T00:25:51;4.90;99.90
62991;DHT22;49084;48.204;16.202;2022-12-07T00:28:17;4.90;99.90
62991;DHT22;49084;48.204;16.202;2022-12-07T00:30:42;4.90;99.90
62991;DHT22;49084;48.204;16.202;2022-12-07T00:33:08;5.00;99.90
62991;DHT22;49084;48.204;16.202;2022-12-07T00:35:34;4.90;99.90
62991;DHT22;49084;48.204;16.202;2022-12-07T00:37:59;4.90;99.90
62991;DHT22;49084;48.204;16.202;2022-12-07T00:40:25;5.00;99.90
62991;DHT22;49084;48.204;16.202;2022-12-07T00:42:51;4.90;99.90
62991;DHT22;49084;48.204;16.202;2022-12-07T00:45:16;4.90;99.90
62991;DHT22;49084;48.204;16.202;2022-12-07T00:47:42;4.90;99.90
62991;DHT22;49084;48.204;16.202;2022-12-07T00:50:08;4.90;99.90
62991;DHT22;49084;48.204;16.202;2022-12-07T00:52:33;4.90;99.90
62991;DHT22;49084;48.204;16.202;2022-12-07T00:54:59;4.90;99.90
62991;DHT22;49084;48.204;16.202;2022-12-07T00:57:25;4.90;99.90
62991;DHT22;49084;48.204;16.202;2022-12-07T00:59:50;4.90;99.90
62991;DHT22;49084;48.204;16.202;2022-12-07T01:02:20;4.90;99.90
62991;DHT22;49084;48.204;16.202;2022-12-07T01:04:46;4.90;99.90
62991;DHT22;49084;48.204;16.202;2022-12-07T01:07:12;4.90;99.90
62991;DHT22;49084;48.204;16.202;2022-12-07T01:09:37;4.90;99.90
62991;DHT22;49084;48.204;16.202;2022-12-07T01:12:03;4.90;99.90
62991;DHT22;49084;48.204;16.202;2022-12-07T01:14:29;4.90;99.90
62991;DHT22;49084;48.204;16.202;2022-12-07T01:16:54;4.90;99.90
62991;DHT22;49084;48.204;16.202;2022-12-07T01:19:20;4.90;99.90
62991;DHT22;49084;48.204;16.202;2022-12-07T01:21:45;4.90;99.90
62991;DHT22;49084;48.204;16.202;2022-12-07T01:24:11;4.90;99.90
62991;DHT22;49084;48.204;16.202;2022-12-07T01:26:37;4.80;99.90
62991;DHT22;49084;48.204;16.202;2022-12-07T01:29:03;4.80;99.90
62991;DHT22;49084;48.204;16.202;2022-12-07T01:31:30;4.80;99.90
62991;DHT22;49084;48.204;16.202;2022-12-07T01:33:58;4.80;99.90
62991;DHT22;49084;48.204;16.202;2022-12-07T01:36:27;4.80;99.90
62991;DHT22;49084;48.204;16.202;2022-12-07T01:38:56;4.80;99.90
62991;DHT22;49084;48.204;16.202;2022-12-07T01:41:24;4.80;99.90
62991;DHT22;49084;48.204;16.202;2022-12-07T01:44:25;4.80;99.90
62991;DHT22;49084;48.204;16.202;2022-12-07T01:46:58;4.70;99.90
62991;DHT22;49084;48.204;16.202;2022-12-07T01:52:33;4.70;99.90
62991;DHT22;49084;48.204;16.202;2022-12-07T01:55:06;4.70;99.90
62991;DHT22;49084;48.204;16.202;2022-12-07T01:57:34;4.70;99.90
62991;DHT22;49084;48.204;16.202;2022-12-07T02:00:03;4.70;99.90
62991;DHT22;49084;48.204;16.202;2022-12-07T02:02:38;4.70;99.90
62991;DHT22;49084;48.204;16.202;2022-12-07T02:05:05;4.70;99.90
62991;DHT22;49084;48.204;16.202;2022-12-07T02:07:33;4.70;99.90
62991;DHT22;49084;48.204;16.202;2022-12-07T02:10:21;4.70;99.90
62991;DHT22;49084;48.204;16.202;2022-12-07T02:12:55;4.70;99.90
62991;DHT22;49084;48.204;16.202;2022-12-07T02:15:26;4.70;99.90
62991;DHT22;49084;48.204;16.202;2022-12-07T02:18:14;4.70;99.90
62991;DHT22;49084;48.204;16.202;2022-12-07T02:21:13;4.70;99.90
62991;DHT22;49084;48.204;16.202;2022-12-07T02:29:23;4.70;99.90
62991;DHT22;49084;48.204;16.202;2022-12-07T02:32:13;4.70;99.90
62991;DHT22;49084;48.204;16.202;2022-12-07T02:35:03;4.70;99.90
62991;DHT22;49084;48.204;16.202;2022-12-07T02:37:53;4.70;99.90
62991;DHT22;49084;48.204;16.202;2022-12-07T02:40:35;4.70;99.90
62991;DHT22;49084;48.204;16.202;2022-12-07T02:43:23;4.70;99.90
62991;DHT22;49084;48.204;16.202;2022-12-07T02:45:52;4.70;99.90
62991;DHT22;49084;48.204;16.202;2022-12-07T02:48:19;4.70;99.90
62991;DHT22;49084;48.204;16.202;2022-12-07T02:50:50;4.60;99.90
62991;DHT22;49084;48.204;16.202;2022-12-07T02:53:40;4.60;99.90
62991;DHT22;49084;48.204;16.202;2022-12-07T02:56:07;4.60;99.90
62991;DHT22;49084;48.204;16.202;2022-12-07T02:58:50;4.60;99.90
62991;DHT22;49084;48.204;16.202;2022-12-07T03:10:48;4.60;99.90
62991;DHT22;49084;48.204;16.202;2022-12-07T03:18:24;4.70;99.90
62991;DHT22;49084;48.204;16.202;2022-12-07T03:20:54;4.60;99.90
62991;DHT22;49084;48.204;16.202;2022-12-07T03:23:22;4.60;99.90
62991;DHT22;49084;48.204;16.202;2022-12-07T03:25:54;4.60;99.90
62991;DHT22;49084;48.204;16.202;2022-12-07T03:28:23;4.60;99.90
62991;DHT22;49084;48.204;16.202;2022-12-07T03:30:57;4.60;99.90
62991;DHT22;49084;48.204;16.202;2022-12-07T03:33:31;4.60;99.90
62991;DHT22;49084;48.204;16.202;2022-12-07T03:36:02;4.60;99.90
62991;DHT22;49084;48.204;16.202;2022-12-07T03:41:47;4.60;99.90
62991;DHT22;49084;48.204;16.202;2022-12-07T03:44:14;4.60;99.90
62991;DHT22;49084;48.204;16.202;2022-12-07T03:49:45;4.60;99.90
62991;DHT22;49084;48.204;16.202;2022-12-07T03:57:22;4.60;99.90
62991;DHT22;49084;48.204;16.202;2022-12-07T03:59:49;4.50;99.90
62991;DHT22;49084;48.204;16.202;2022-12-07T04:02:16;4.50;99.90
62991;DHT22;49084;48.204;16.202;2022-12-07T04:04:42;4.50;99.90
62991;DHT22;49084;48.204;16.202;2022-12-07T04:07:08;4.60;99.90
62991;DHT22;49084;48.204;16.202;2022-12-07T04:09:34;4.50;99.90
62991;DHT22;49084;48.204;16.202;2022-12-07T04:12:00;4.50;99.90
62991;DHT22;49084;48.204;16.202;2022-12-07T04:14:26;4.50;99.90
62991;DHT22;49084;48.204;16.202;2022-12-07T04:16:54;4.50;99.90
62991;DHT22;49084;48.204;16.202;2022-12-07T04:19:27;4.50;99.90
62991;DHT22;49084;48.204;16.202;2022-12-07T04:21:53;4.50;99.90
62991;DHT22;49084;48.204;16.202;2022-12-07T04:24:19;4.60;99.90
62991;DHT22;49084;48.204;16.202;2022-12-07T04:26:45;4.60;99.90
62991;DHT22;49084;48.204;16.202;2022-12-07T04:29:12;4.60;99.90
62991;DHT22;49084;48.204;16.202;2022-12-07T04:31:39;4.60;99.90
62991;DHT22;49084;48.204;16.202;2022-12-07T04:34:05;4.60;99.90
62991;DHT22;49084;48.204;16.202;2022-12-07T04:36:31;4.60;99.90
62991;DHT22;49084;48.204;16.202;2022-12-07T04:38:57;4.60;99.90
62991;DHT22;49084;48.204;16.202;2022-12-07T04:41:24;4.60;99.90
62991;DHT22;49084;48.204;16.202;2022-12-07T04:43:57;4.60;99.90
62991;DHT22;49084;48.204;16.202;2022-12-07T04:46:24;4.60;99.90
62991;DHT22;49084;48.204;16.202;2022-12-07T04:48:51;4.60;99.90
62991;DHT22;49084;48.204;16.202;2022-12-07T04:51:20;4.60;99.90
62991;DHT22;49084;48.204;16.202;2022-12-07T04:53:46;4.60;99.90
62991;DHT22;49084;48.204;16.202;2022-12-07T04:56:14;4.60;99.90
62991;DHT22;49084;48.204;16.202;2022-12-07T04:58:40;4.60;99.90
62991;DHT22;49084;48.204;16.202;2022-12-07T05:01:06;4.60;99.90
62991;DHT22;49084;48.204;16.202;2022-12-07T05:03:32;4.60;99.90
62991;DHT22;49084;48.204;16.202;2022-12-07T05:05:58;4.60;99.90
62991;DHT22;49084;48.204;16.202;2022-12-07T05:08:23;4.60;99.90
62991;DHT22;49084;48.204;16.202;2022-12-07T05:10:49;4.60;99.90
62991;DHT22;49084;48.204;16.202;2022-12-07T05:13:15;4.60;99.90
62991;DHT22;49084;48.204;16.202;2022-12-07T05:15:41;4.60;99.90
62991;DHT22;49084;48.204;16.202;2022-12-07T05:18:09;4.60;99.90
62991;DHT22;49084;48.204;16.202;2022-12-07T05:20:38;4.70;99.90
62991;DHT22;49084;48.204;16.202;2022-12-07T05:23:04;4.70;99.90
62991;DHT22;49084;48.204;16.202;2022-12-07T05:25:29;4.70;99.90
62991;DHT22;49084;48.204;16.202;2022-12-07T05:27:55;4.60;99.90
62991;DHT22;49084;48.204;16.202;2022-12-07T05:30:22;4.60;99.90
62991;DHT22;49084;48.204;16.202;2022-12-07T05:32:48;4.60;99.90
62991;DHT22;49084;48.204;16.202;2022-12-07T05:35:14;4.60;99.90
62991;DHT22;49084;48.204;16.202;2022-12-07T05:37:39;4.60;99.90
62991;DHT22;49084;48.204;16.202;2022-12-07T05:40:05;4.70;99.90
62991;DHT22;49084;48.204;16.202;2022-12-07T05:42:31;4.70;99.90
62991;DHT22;49084;48.204;16.202;2022-12-07T05:44:57;4.70;99.90
62991;DHT22;49084;48.204;16.202;2022-12-07T05:47:23;4.70;99.90
62991;DHT22;49084;48.204;16.202;2022-12-07T05:49:48;4.70;99.90
62991;DHT22;49084;48.204;16.202;2022-12-07T05:52:14;4.70;99.90
62991;DHT22;49084;48.204;16.202;2022-12-07T05:54:40;4.70;99.90
62991;DHT22;49084;48.204;16.202;2022-12-07T05:57:05;4.70;99.90
62991;DHT22;49084;48.204;16.202;2022-12-07T05:59:31;4.70;99.90
62991;DHT22;49084;48.204;16.202;2022-12-07T06:01:59;4.70;99.90
62991;DHT22;49084;48.204;16.202;2022-12-07T06:04:27;4.70;99.90
62991;DHT22;49084;48.204;16.202;2022-12-07T06:06:53;4.70;99.90
62991;DHT22;49084;48.204;16.202;2022-12-07T06:09:20;4.70;99.90
62991;DHT22;49084;48.204;16.202;2022-12-07T06:11:47;4.70;99.90
62991;DHT22;49084;48.204;16.202;2022-12-07T06:14:33;4.70;99.90
62991;DHT22;49084;48.204;16.202;2022-12-07T06:16:59;4.70;99.90
62991;DHT22;49084;48.204;16.202;2022-12-07T06:19:24;4.70;99.90
62991;DHT22;49084;48.204;16.202;2022-12-07T06:21:50;4.70;99.90
62991;DHT22;49084;48.204;16.202;2022-12-07T06:24:17;4.70;99.90
62991;DHT22;49084;48.204;16.202;2022-12-07T06:26:43;4.70;99.90
62991;DHT22;49084;48.204;16.202;2022-12-07T06:29:10;4.70;99.90
62991;DHT22;49084;48.204;16.202;2022-12-07T06:31:36;4.70;99.90
62991;DHT22;49084;48.204;16.202;2022-12-07T06:34:08;4.70;99.90
62991;DHT22;49084;48.204;16.202;2022-12-07T06:36:35;4.70;99.90
62991;DHT22;49084;48.204;16.202;2022-12-07T06:39:02;4.70;99.90
62991;DHT22;49084;48.204;16.202;2022-12-07T06:41:27;4.70;99.90
62991;DHT22;49084;48.204;16.202;2022-12-07T06:43:53;4.70;99.90
62991;DHT22;49084;48.204;16.202;2022-12-07T06:46:19;4.70;99.90
62991;DHT22;49084;48.204;16.202;2022-12-07T06:48:45;4.70;99.90
62991;DHT22;49084;48.204;16.202;2022-12-07T06:51:11;4.70;99.90
62991;DHT22;49084;48.204;16.202;2022-12-07T06:53:37;4.70;99.90
62991;DHT22;49084;48.204;16.202;2022-12-07T06:56:03;4.80;99.90
62991;DHT22;49084;48.204;16.202;2022-12-07T06:58:30;4.80;99.90
62991;DHT22;49084;48.204;16.202;2022-12-07T07:00:55;4.80;99.90
62991;DHT22;49084;48.204;16.202;2022-12-07T07:03:21;4.80;99.90
62991;DHT22;49084;48.204;16.202;2022-12-07T07:05:47;4.80;99.90
62991;DHT22;49084;48.204;16.202;2022-12-07T07:08:13;4.80;99.90
62991;DHT22;49084;48.204;16.202;2022-12-07T07:10:39;4.80;99.90
62991;DHT22;49084;48.204;16.202;2022-12-07T07:13:05;4.90;99.90
62991;DHT22;49084;48.204;16.202;2022-12-07T07:15:31;4.80;99.90
62991;DHT22;49084;48.204;16.202;2022-12-07T07:17:57;4.80;99.90
62991;DHT22;49084;48.204;16.202;2022-12-07T07:20:22;4.80;99.90
62991;DHT22;49084;48.204;16.202;2022-12-07T07:22:48;4.80;99.90
62991;DHT22;49084;48.204;16.202;2022-12-07T07:25:14;4.80;99.90
62991;DHT22;49084;48.204;16.202;2022-12-07T07:27:40;4.80;99.90
62991;DHT22;49084;48.204;16.202;2022-12-07T07:30:07;4.80;99.90
62991;DHT22;49084;48.204;16.202;2022-12-07T07:32:33;4.80;99.90
62991;DHT22;49084;48.204;16.202;2022-12-07T07:34:59;4.80;99.90
62991;DHT22;49084;48.204;16.202;2022-12-07T07:37:25;4.80;99.90
62991;DHT22;49084;48.204;16.202;2022-12-07T07:39:51;4.80;99.90
62991;DHT22;49084;48.204;16.202;2022-12-07T07:42:17;4.80;99.90
62991;DHT22;49084;48.204;16.202;2022-12-07T07:44:42;4.80;99.90
62991;DHT22;49084;48.204;16.202;2022-12-07T07:47:08;4.80;99.90
62991;DHT22;49084;48.204;16.202;2022-12-07T07:49:34;4.80;99.90
62991;DHT22;49084;48.204;16.202;2022-12-07T07:51:59;4.80;99.90
62991;DHT22;49084;48.204;16.202;2022-12-07T07:54:25;4.80;99.90
62991;DHT22;49084;48.204;16.202;2022-12-07T07:56:52;4.80;99.90
62991;DHT22;49084;48.204;16.202;2022-12-07T07:59:18;4.80;99.90
62991;DHT22;49084;48.204;16.202;2022-12-07T08:01:43;4.80;99.90
62991;DHT22;49084;48.204;16.202;2022-12-07T08:04:09;4.80;99.90
62991;DHT22;49084;48.204;16.202;2022-12-07T08:06:35;4.80;99.90
62991;DHT22;49084;48.204;16.202;2022-12-07T08:09:01;4.80;99.90
62991;DHT22;49084;48.204;16.202;2022-12-07T08:11:27;4.80;99.90
62991;DHT22;49084;48.204;16.202;2022-12-07T08:13:52;4.90;99.90
62991;DHT22;49084;48.204;16.202;2022-12-07T08:16:18;4.90;99.90
62991;DHT22;49084;48.204;16.202;2022-12-07T08:18:43;5.00;99.90
62991;DHT22;49084;48.204;16.202;2022-12-07T08:21:14;5.00;99.90
62991;DHT22;49084;48.204;16.202;2022-12-07T08:23:40;5.10;99.90
62991;DHT22;49084;48.204;16.202;2022-12-07T08:26:09;5.10;99.90
62991;DHT22;49084;48.204;16.202;2022-12-07T08:28:36;5.20;99.90
62991;DHT22;49084;48.204;16.202;2022-12-07T08:31:04;5.20;99.90
62991;DHT22;49084;48.204;16.202;2022-12-07T08:33:30;5.30;99.90
62991;DHT22;49084;48.204;16.202;2022-12-07T08:36:04;5.20;99.90
62991;DHT22;49084;48.204;16.202;2022-12-07T08:38:30;5.20;99.90
62991;DHT22;49084;48.204;16.202;2022-12-07T08:40:56;5.20;99.90
62991;DHT22;49084;48.204;16.202;2022-12-07T08:43:22;5.30;99.90
62991;DHT22;49084;48.204;16.202;2022-12-07T08:48:54;5.40;99.90
62991;DHT22;49084;48.204;16.202;2022-12-07T08:51:22;5.30;99.90
62991;DHT22;49084;48.204;16.202;2022-12-07T08:53:49;5.30;99.90
62991;DHT22;49084;48.204;16.202;2022-12-07T08:56:16;5.20;99.90
62991;DHT22;49084;48.204;16.202;2022-12-07T08:58:42;5.20;99.90
62991;DHT22;49084;48.204;16.202;2022-12-07T09:01:08;5.20;99.90
62991;DHT22;49084;48.204;16.202;2022-12-07T09:03:34;5.20;99.90
62991;DHT22;49084;48.204;16.202;2022-12-07T09:06:00;5.20;99.90
62991;DHT22;49084;48.204;16.202;2022-12-07T09:08:31;5.30;99.90
62991;DHT22;49084;48.204;16.202;2022-12-07T09:10:58;5.30;99.90
62991;DHT22;49084;48.204;16.202;2022-12-07T09:13:24;5.40;99.90
62991;DHT22;49084;48.204;16.202;2022-12-07T09:15:51;5.40;99.90
62991;DHT22;49084;48.204;16.202;2022-12-07T09:18:16;5.60;99.90
62991;DHT22;49084;48.204;16.202;2022-12-07T09:20:42;6.20;99.90
62991;DHT22;49084;48.204;16.202;2022-12-07T09:23:08;6.60;99.90
62991;DHT22;49084;48.204;16.202;2022-12-07T09:25:34;6.90;99.90
62991;DHT22;49084;48.204;16.202;2022-12-07T09:28:00;6.90;99.90
62991;DHT22;49084;48.204;16.202;2022-12-07T09:30:27;6.80;99.90
62991;DHT22;49084;48.204;16.202;2022-12-07T09:32:54;6.70;99.90
62991;DHT22;49084;48.204;16.202;2022-12-07T09:35:19;6.70;99.90
62991;DHT22;49084;48.204;16.202;2022-12-07T09:37:45;6.80;99.90
62991;DHT22;49084;48.204;16.202;2022-12-07T09:40:12;7.20;99.90
62991;DHT22;49084;48.204;16.202;2022-12-07T09:42:44;7.00;99.90
62991;DHT22;49084;48.204;16.202;2022-12-07T09:45:38;7.00;99.90
62991;DHT22;49084;48.204;16.202;2022-12-07T09:48:09;7.30;99.90
62991;DHT22;49084;48.204;16.202;2022-12-07T09:50:39;7.10;99.90
62991;DHT22;49084;48.204;16.202;2022-12-07T09:53:09;6.90;99.90
62991;DHT22;49084;48.204;16.202;2022-12-07T09:55:38;6.90;99.90
62991;DHT22;49084;48.204;16.202;2022-12-07T09:58:06;6.90;99.90
62991;DHT22;49084;48.204;16.202;2022-12-07T10:00:31;6.90;99.90
62991;DHT22;49084;48.204;16.202;2022-12-07T10:02:59;6.90;99.90
62991;DHT22;49084;48.204;16.202;2022-12-07T10:05:41;7.20;99.90
62991;DHT22;49084;48.204;16.202;2022-12-07T10:08:11;7.50;99.90
62991;DHT22;49084;48.204;16.202;2022-12-07T10:10:37;7.40;99.90
62991;DHT22;49084;48.204;16.202;2022-12-07T10:13:13;7.30;99.90
62991;DHT22;49084;48.204;16.202;2022-12-07T10:15:55;7.20;99.90
62991;DHT22;49084;48.204;16.202;2022-12-07T10:18:33;7.30;99.90
62991;DHT22;49084;48.204;16.202;2022-12-07T10:23:33;7.00;99.90
62991;DHT22;49084;48.204;16.202;2022-12-07T10:25:59;6.70;99.90
62991;DHT22;49084;48.204;16.202;2022-12-07T10:28:36;6.90;99.90
62991;DHT22;49084;48.204;16.202;2022-12-07T10:31:14;7.00;99.90
62991;DHT22;49084;48.204;16.202;2022-12-07T10:34:00;7.00;99.90
62991;DHT22;49084;48.204;16.202;2022-12-07T10:36:35;7.10;99.90
62991;DHT22;49084;48.204;16.202;2022-12-07T10:39:14;6.90;99.90
62991;DHT22;49084;48.204;16.202;2022-12-07T10:42:22;6.50;99.90
62991;DHT22;49084;48.204;16.202;2022-12-07T10:44:49;6.10;99.90
62991;DHT22;49084;48.204;16.202;2022-12-07T11:01:43;5.60;99.90
62991;DHT22;49084;48.204;16.202;2022-12-07T11:04:17;5.60;99.90
62991;DHT22;49084;48.204;16.202;2022-12-07T11:15:08;5.60;99.90
62991;DHT22;49084;48.204;16.202;2022-12-07T11:17:45;5.70;99.90
62991;DHT22;49084;48.204;16.202;2022-12-07T11:20:33;5.70;99.90
62991;DHT22;49084;48.204;16.202;2022-12-07T11:23:39;5.80;99.90
62991;DHT22;49084;48.204;16.202;2022-12-07T11:34:00;6.20;99.90
62991;DHT22;49084;48.204;16.202;2022-12-07T11:36:46;6.10;99.90
62991;DHT22;49084;48.204;16.202;2022-12-07T11:41:48;5.80;99.90
62991;DHT22;49084;48.204;16.202;2022-12-07T11:47:47;5.70;99.90
62991;DHT22;49084;48.204;16.202;2022-12-07T11:50:33;6.00;99.90
62991;DHT22;49084;48.204;16.202;2022-12-07T11:58:18;7.90;98.00
62991;DHT22;49084;48.204;16.202;2022-12-07T12:00:51;8.40;96.60
62991;DHT22;49084;48.204;16.202;2022-12-07T12:03:25;9.20;95.20
62991;DHT22;49084;48.204;16.202;2022-12-07T12:05:56;9.50;92.80
62991;DHT22;49084;48.204;16.202;2022-12-07T12:08:29;9.80;91.40
62991;DHT22;49084;48.204;16.202;2022-12-07T12:21:28;10.30;82.80
62991;DHT22;49084;48.204;16.202;2022-12-07T12:24:00;10.40;82.50
62991;DHT22;49084;48.204;16.202;2022-12-07T12:26:31;10.30;81.10
62991;DHT22;49084;48.204;16.202;2022-12-07T12:28:58;10.20;81.80
62991;DHT22;49084;48.204;16.202;2022-12-07T12:34:01;10.90;79.50
62991;DHT22;49084;48.204;16.202;2022-12-07T12:36:46;10.70;78.20
62991;DHT22;49084;48.204;16.202;2022-12-07T12:39:16;10.20;76.80
62991;DHT22;49084;48.204;16.202;2022-12-07T12:46:51;8.70;81.40
62991;DHT22;49084;48.204;16.202;2022-12-07T12:52:00;8.20;86.00
62991;DHT22;49084;48.204;16.202;2022-12-07T12:54:30;8.20;86.00
62991;DHT22;49084;48.204;16.202;2022-12-07T13:02:27;7.80;90.90
62991;DHT22;49084;48.204;16.202;2022-12-07T13:05:00;8.10;90.30
62991;DHT22;49084;48.204;16.202;2022-12-07T13:13:32;8.40;89.50
62991;DHT22;49084;48.204;16.202;2022-12-07T13:28:47;7.30;91.70
62991;DHT22;49084;48.204;16.202;2022-12-07T13:31:33;7.00;92.60
62991;DHT22;49084;48.204;16.202;2022-12-07T13:34:00;6.70;93.60
62991;DHT22;49084;48.204;16.202;2022-12-07T13:36:43;6.30;94.50
62991;DHT22;49084;48.204;16.202;2022-12-07T13:39:21;6.00;95.30
62991;DHT22;49084;48.204;16.202;2022-12-07T13:44:45;5.70;96.70
62991;DHT22;49084;48.204;16.202;2022-12-07T13:49:55;5.50;98.80
62991;DHT22;49084;48.204;16.202;2022-12-07T13:55:15;5.50;99.90
62991;DHT22;49084;48.204;16.202;2022-12-07T13:57:45;5.40;99.90
62991;DHT22;49084;48.204;16.202;2022-12-07T14:00:18;5.40;99.90
62991;DHT22;49084;48.204;16.202;2022-12-07T14:05:44;5.20;99.90
62991;DHT22;49084;48.204;16.202;2022-12-07T14:10:54;5.20;99.90
62991;DHT22;49084;48.204;16.202;2022-12-07T14:13:33;5.10;99.90
62991;DHT22;49084;48.204;16.202;2022-12-07T14:16:01;5.10;99.90
62991;DHT22;49084;48.204;16.202;2022-12-07T14:18:37;5.00;99.90
62991;DHT22;49084;48.204;16.202;2022-12-07T14:21:24;5.00;99.90
62991;DHT22;49084;48.204;16.202;2022-12-07T14:24:17;4.90;99.90
62991;DHT22;49084;48.204;16.202;2022-12-07T14:26:45;4.90;99.90
62991;DHT22;49084;48.204;16.202;2022-12-07T14:31:56;4.80;99.90
62991;DHT22;49084;48.204;16.202;2022-12-07T14:34:22;4.80;99.90
62991;DHT22;49084;48.204;16.202;2022-12-07T14:36:48;4.80;99.90
62991;DHT22;49084;48.204;16.202;2022-12-07T14:39:14;4.80;99.90
62991;DHT22;49084;48.204;16.202;2022-12-07T14:41:40;4.80;99.90
62991;DHT22;49084;48.204;16.202;2022-12-07T14:44:19;4.80;99.90
62991;DHT22;49084;48.204;16.202;2022-12-07T14:46:46;4.80;99.90
62991;DHT22;49084;48.204;16.202;2022-12-07T14:49:12;4.80;99.90
62991;DHT22;49084;48.204;16.202;2022-12-07T14:51:39;4.90;99.90
62991;DHT22;49084;48.204;16.202;2022-12-07T14:54:06;4.90;99.90
62991;DHT22;49084;48.204;16.202;2022-12-07T14:56:35;4.90;99.90
62991;DHT22;49084;48.204;16.202;2022-12-07T14:59:00;4.90;99.90
62991;DHT22;49084;48.204;16.202;2022-12-07T15:01:26;4.80;99.90
62991;DHT22;49084;48.204;16.202;2022-12-07T15:03:51;4.80;99.90
62991;DHT22;49084;48.204;16.202;2022-12-07T15:06:18;4.80;99.90
62991;DHT22;49084;48.204;16.202;2022-12-07T15:08:44;4.80;99.90
62991;DHT22;49084;48.204;16.202;2022-12-07T15:11:15;4.80;99.90
62991;DHT22;49084;48.204;16.202;2022-12-07T15:13:42;4.80;99.90
62991;DHT22;49084;48.204;16.202;2022-12-07T15:16:43;4.70;99.90
62991;DHT22;49084;48.204;16.202;2022-12-07T15:19:20;4.70;99.90
62991;DHT22;49084;48.204;16.202;2022-12-07T15:21:48;4.70;99.90
62991;DHT22;49084;48.204;16.202;2022-12-07T15:24:14;4.70;99.90
62991;DHT22;49084;48.204;16.202;2022-12-07T15:26:40;4.60;99.90
62991;DHT22;49084;48.204;16.202;2022-12-07T15:29:07;4.60;99.90
62991;DHT22;49084;48.204;16.202;2022-12-07T15:31:33;4.60;99.90
62991;DHT22;49084;48.204;16.202;2022-12-07T15:33:59;4.50;99.90
62991;DHT22;49084;48.204;16.202;2022-12-07T15:36:27;4.50;99.90
62991;DHT22;49084;48.204;16.202;2022-12-07T15:38:54;4.50;99.90
62991;DHT22;49084;48.204;16.202;2022-12-07T15:41:20;4.50;99.90
62991;DHT22;49084;48.204;16.202;2022-12-07T15:43:46;4.50;99.90
62991;DHT22;49084;48.204;16.202;2022-12-07T15:46:32;4.40;99.90
62991;DHT22;49084;48.204;16.202;2022-12-07T15:48:58;4.40;99.90
62991;DHT22;49084;48.204;16.202;2022-12-07T15:51:24;4.40;99.90
62991;DHT22;49084;48.204;16.202;2022-12-07T15:53:49;4.30;99.90
62991;DHT22;49084;48.204;16.202;2022-12-07T15:56:15;4.20;99.90
62991;DHT22;49084;48.204;16.202;2022-12-07T15:58:41;4.40;99.90
62991;DHT22;49084;48.204;16.202;2022-12-07T16:01:11;4.40;99.90
62991;DHT22;49084;48.204;16.202;2022-12-07T16:03:37;4.30;99.90
62991;DHT22;49084;48.204;16.202;2022-12-07T16:06:03;4.20;99.90
62991;DHT22;49084;48.204;16.202;2022-12-07T16:08:29;4.10;99.90
62991;DHT22;49084;48.204;16.202;2022-12-07T16:10:55;4.10;99.90
62991;DHT22;49084;48.204;16.202;2022-12-07T16:13:20;4.00;99.90
62991;DHT22;49084;48.204;16.202;2022-12-07T16:15:46;4.00;99.90
62991;DHT22;49084;48.204;16.202;2022-12-07T16:18:12;3.90;99.90
62991;DHT22;49084;48.204;16.202;2022-12-07T16:20:38;3.90;99.90
62991;DHT22;49084;48.204;16.202;2022-12-07T16:23:05;3.80;99.90
62991;DHT22;49084;48.204;16.202;2022-12-07T16:25:30;3.80;99.90
62991;DHT22;49084;48.204;16.202;2022-12-07T16:27:56;3.70;99.90
62991;DHT22;49084;48.204;16.202;2022-12-07T16:30:22;3.60;99.90
62991;DHT22;49084;48.204;16.202;2022-12-07T16:32:47;3.60;99.90
62991;DHT22;49084;48.204;16.202;2022-12-07T16:35:13;3.60;99.90
62991;DHT22;49084;48.204;16.202;2022-12-07T16:37:41;3.60;99.90
62991;DHT22;49084;48.204;16.202;2022-12-07T16:40:07;3.50;99.90
62991;DHT22;49084;48.204;16.202;2022-12-07T16:42:34;3.50;99.90
62991;DHT22;49084;48.204;16.202;2022-12-07T16:45:01;3.60;99.90
62991;DHT22;49084;48.204;16.202;2022-12-07T16:47:27;3.50;99.90
62991;DHT22;49084;48.204;16.202;2022-12-07T16:49:52;3.50;99.90
62991;DHT22;49084;48.204;16.202;2022-12-07T16:52:19;3.50;99.90
62991;DHT22;49084;48.204;16.202;2022-12-07T16:54:46;3.50;99.90
62991;DHT22;49084;48.204;16.202;2022-12-07T16:57:12;3.40;99.90
62991;DHT22;49084;48.204;16.202;2022-12-07T16:59:38;3.30;99.90
62991;DHT22;49084;48.204;16.202;2022-12-07T17:02:04;3.30;99.90
62991;DHT22;49084;48.204;16.202;2022-12-07T17:04:32;3.30;99.90
62991;DHT22;49084;48.204;16.202;2022-12-07T17:06:58;3.20;99.90
62991;DHT22;49084;48.204;16.202;2022-12-07T17:09:24;3.20;99.90
62991;DHT22;49084;48.204;16.202;2022-12-07T17:11:50;3.20;99.90
62991;DHT22;49084;48.204;16.202;2022-12-07T17:14:16;3.10;99.90
62991;DHT22;49084;48.204;16.202;2022-12-07T17:17:08;3.10;99.90
62991;DHT22;49084;48.204;16.202;2022-12-07T17:19:34;3.10;99.90
62991;DHT22;49084;48.204;16.202;2022-12-07T17:22:00;3.10;99.90
62991;DHT22;49084;48.204;16.202;2022-12-07T17:24:25;3.10;99.90
62991;DHT22;49084;48.204;16.202;2022-12-07T17:26:51;3.10;99.90
62991;DHT22;49084;48.204;16.202;2022-12-07T17:29:18;3.20;99.90
62991;DHT22;49084;48.204;16.202;2022-12-07T17:31:45;3.20;99.90
62991;DHT22;49084;48.204;16.202;2022-12-07T17:34:12;3.30;99.90
62991;DHT22;49084;48.204;16.202;2022-12-07T17:36:38;3.30;99.90
62991;DHT22;49084;48.204;16.202;2022-12-07T17:39:08;3.20;99.90
62991;DHT22;49084;48.204;16.202;2022-12-07T17:41:35;3.20;99.90
62991;DHT22;49084;48.204;16.202;2022-12-07T17:44:20;3.20;99.90
62991;DHT22;49084;48.204;16.202;2022-12-07T17:46:48;3.10;99.90
62991;DHT22;49084;48.204;16.202;2022-12-07T17:49:15;3.00;99.90
62991;DHT22;49084;48.204;16.202;2022-12-07T17:51:41;3.00;99.90
62991;DHT22;49084;48.204;16.202;2022-12-07T17:54:26;2.90;99.90
62991;DHT22;49084;48.204;16.202;2022-12-07T17:56:51;2.80;99.90
62991;DHT22;49084;48.204;16.202;2022-12-07T17:59:17;2.80;99.90
62991;DHT22;49084;48.204;16.202;2022-12-07T18:01:44;2.70;99.90
62991;DHT22;49084;48.204;16.202;2022-12-07T18:04:10;2.70;99.90
62991;DHT22;49084;48.204;16.202;2022-12-07T18:06:37;2.60;99.90
62991;DHT22;49084;48.204;16.202;2022-12-07T18:09:03;2.60;99.90